Time;durP1;ratioP1;P1;durP2;ratioP2;P2;SDS_P1;SDS_P2;PMS_P1;PMS_P2;Temp;Humidity;BMP_temperature;BMP_pressure;BME280_temperature;BME280_humidity;BME280_pressure;Samples;Min_cycle;Max_cycle;Signal;HPM_P1;HPM_P2
2022/09/11 00:02:43;;;;;;;2.75;1.20;;;;;;;13.47;100.00;98203.19;15290380;19;20181;-79
2022/09/11 00:07:49;;;;;;;2.20;1.50;;;;;;;13.41;100.00;98207.47;15280542;19;20034;-78
2022/09/11 00:12:56;;;;;;;1.90;1.40;;;;;;;13.39;100.00;98207.69;15289652;19;20019;-79
2022/09/11 00:18:01;;;;;;;2.47;1.42;;;;;;;13.39;100.00;98202.28;15291795;19;20081;-80
2022/09/11 00:23:05;;;;;;;1.92;1.20;;;;;;;13.36;100.00;98212.56;15292326;19;20360;-80
2022/09/11 00:28:17;;;;;;;1.83;1.50;;;;;;;13.37;100.00;98215.09;15288141;19;20011;-81
2022/09/11 00:33:21;;;;;;;2.97;1.50;;;;;;;13.34;100.00;98209.22;15293370;19;20094;-81
2022/09/11 00:38:27;;;;;;;1.88;1.40;;;;;;;13.29;100.00;98212.47;15294507;19;20022;-79
2022/09/11 00:43:58;;;;;;;1.75;1.55;;;;;;;13.19;100.00;98206.47;15293319;19;20384;-78
2022/09/11 00:49:16;;;;;;;3.38;1.80;;;;;;;13.07;100.00;98206.09;15321776;19;20015;-78
2022/09/11 00:54:27;;;;;;;3.28;2.60;;;;;;;13.00;100.00;98208.69;15311775;19;20018;-78
2022/09/11 00:59:36;;;;;;;3.47;2.20;;;;;;;12.95;100.00;98216.47;15278343;19;20082;-77
2022/09/11 01:04:41;;;;;;;2.22;2.00;;;;;;;12.92;100.00;98215.00;15280871;19;20022;-78
2022/09/11 01:09:46;;;;;;;3.40;2.08;;;;;;;12.91;100.00;98221.41;15276855;19;20043;-79
2022/09/11 01:15:00;;;;;;;2.30;1.88;;;;;;;12.90;100.00;98213.50;15281290;19;20022;-79
2022/09/11 01:20:42;;;;;;;1.95;1.70;;;;;;;12.91;100.00;98216.00;15279564;19;20018;-78
2022/09/11 01:26:05;;;;;;;2.80;2.15;;;;;;;12.89;100.00;98214.53;15276843;19;20015;-78
2022/09/11 01:31:16;;;;;;;2.42;1.45;;;;;;;12.87;100.00;98211.16;15280912;19;20626;-77
2022/09/11 01:36:24;;;;;;;3.63;1.52;;;;;;;12.85;100.00;98216.75;15281769;19;20624;-80
2022/09/11 01:41:33;;;;;;;1.92;1.70;;;;;;;12.85;100.00;98213.19;15283161;19;20022;-81
2022/09/11 01:46:43;;;;;;;3.08;1.60;;;;;;;12.83;100.00;98216.09;15285191;19;20021;-80
2022/09/11 01:51:56;;;;;;;3.35;1.70;;;;;;;12.82;100.00;98218.97;15287917;19;20019;-79
2022/09/11 01:57:08;;;;;;;2.33;1.80;;;;;;;12.79;100.00;98229.13;15326832;19;20202;-80
2022/09/11 02:02:22;;;;;;;4.07;1.95;;;;;;;12.76;100.00;98224.06;15310595;19;20622;-78
2022/09/11 02:07:31;;;;;;;3.47;2.03;;;;;;;12.76;100.00;98231.31;15268566;19;20022;-78
2022/09/11 02:12:43;;;;;;;2.90;2.00;;;;;;;12.75;100.00;98226.97;15274173;19;20007;-78
2022/09/11 02:17:55;;;;;;;1.67;1.30;;;;;;;12.77;100.00;98227.59;15275675;19;20021;-78
2022/09/11 02:23:05;;;;;;;1.88;1.30;;;;;;;12.80;100.00;98235.34;15273541;19;20086;-79
2022/09/11 02:28:10;;;;;;;1.83;1.52;;;;;;;12.81;100.00;98237.03;15272904;19;20591;-78
2022/09/11 02:33:34;;;;;;;3.03;1.60;;;;;;;12.83;100.00;98243.13;15283974;19;20043;-78
2022/09/11 02:38:52;;;;;;;1.50;1.35;;;;;;;12.81;100.00;98237.03;15288462;19;20035;-79
2022/09/11 02:44:06;;;;;;;1.67;1.40;;;;;;;12.81;100.00;98237.03;15293528;19;20018;-79
2022/09/11 02:49:23;;;;;;;2.63;1.60;;;;;;;12.79;100.00;98242.66;15288664;19;20010;-79
2022/09/11 02:54:36;;;;;;;1.60;1.50;;;;;;;12.76;100.00;98259.22;15289548;19;20022;-80
2022/09/11 02:59:46;;;;;;;2.15;1.80;;;;;;;12.64;100.00;98263.34;15292946;19;20027;-79
2022/09/11 03:04:55;;;;;;;3.78;2.10;;;;;;;12.59;100.00;98266.59;15291131;19;20019;-78
2022/09/11 03:10:00;;;;;;;4.35;2.20;;;;;;;12.55;100.00;98265.25;15284039;19;20376;-77
2022/09/11 03:15:08;;;;;;;2.88;2.40;;;;;;;12.52;100.00;98265.63;15289184;19;20010;-78
2022/09/11 03:20:15;;;;;;;3.35;2.47;;;;;;;12.48;100.00;98272.41;15287746;19;20014;-79
2022/09/11 03:25:27;;;;;;;3.50;2.72;;;;;;;12.45;100.00;98278.16;15291456;19;20007;-80
2022/09/11 03:30:34;;;;;;;5.93;3.20;;;;;;;12.44;100.00;98285.41;15291118;19;20041;-80
2022/09/11 03:35:42;;;;;;;5.38;2.92;;;;;;;12.44;100.00;98287.28;15291082;19;20026;-80
2022/09/11 03:40:47;;;;;;;3.92;2.53;;;;;;;12.44;100.00;98295.38;15284643;19;20046;-79
2022/09/11 03:45:52;;;;;;;3.63;2.80;;;;;;;12.43;100.00;98294.53;15286863;19;20505;-80
2022/09/11 03:50:59;;;;;;;4.28;2.88;;;;;;;12.43;100.00;98291.00;15283839;19;20015;-80
2022/09/11 03:56:05;;;;;;;6.65;3.45;;;;;;;12.48;100.00;98300.25;15288971;19;20010;-80
2022/09/11 04:01:18;;;;;;;5.45;4.10;;;;;;;12.57;100.00;98317.25;15294107;19;20035;-79
2022/09/11 04:06:26;;;;;;;5.10;3.47;;;;;;;12.60;100.00;98313.34;15292311;19;20035;-81
2022/09/11 04:11:34;;;;;;;5.57;3.40;;;;;;;12.61;100.00;98313.19;15290019;19;20018;-81
2022/09/11 04:16:42;;;;;;;4.22;3.65;;;;;;;12.64;100.00;98312.81;15286702;19;20021;-79
2022/09/11 04:21:50;;;;;;;3.95;3.25;;;;;;;12.67;100.00;98327.88;15287650;19;20032;-80
2022/09/11 04:26:54;;;;;;;5.28;3.45;;;;;;;12.70;100.00;98321.25;15285452;19;20014;-80
2022/09/11 04:32:05;;;;;;;5.23;4.00;;;;;;;12.70;100.00;98321.25;15287416;19;20014;-80
2022/09/11 04:37:15;;;;;;;4.90;3.70;;;;;;;12.75;100.00;98321.56;15291493;19;20017;-80
2022/09/11 04:42:20;;;;;;;5.25;3.97;;;;;;;12.77;100.00;98330.31;15297902;19;20011;-78
2022/09/11 04:47:25;;;;;;;4.60;4.10;;;;;;;12.81;100.00;98328.97;15286209;19;20015;-78
2022/09/11 04:52:35;;;;;;;4.28;3.65;;;;;;;12.84;100.00;98333.16;15294765;19;20015;-79
2022/09/11 04:57:41;;;;;;;3.60;3.30;;;;;;;12.88;100.00;98339.91;15288538;19;20364;-79
2022/09/11 05:02:46;;;;;;;4.40;3.38;;;;;;;12.90;100.00;98344.09;15289372;19;20015;-79
2022/09/11 05:07:53;;;;;;;3.63;2.85;;;;;;;12.92;100.00;98343.94;15287772;19;20012;-78
2022/09/11 05:12:58;;;;;;;6.18;3.33;;;;;;;12.91;100.00;98348.50;15287305;19;20420;-78
2022/09/11 05:18:03;;;;;;;3.95;3.08;;;;;;;12.92;100.00;98349.34;15290540;19;20018;-78
2022/09/11 05:23:12;;;;;;;4.00;2.78;;;;;;;12.95;100.00;98366.06;15295015;19;20035;-80
2022/09/11 05:28:18;;;;;;;3.78;3.15;;;;;;;12.98;100.00;98372.13;15290093;19;20002;-79
2022/09/11 05:33:30;;;;;;;3.58;3.00;;;;;;;13.05;100.00;98370.41;15323868;19;20021;-80
2022/09/11 05:38:45;;;;;;;5.22;3.10;;;;;;;13.10;100.00;98378.81;15328493;19;20329;-81
2022/09/11 05:43:50;;;;;;;2.85;2.40;;;;;;;13.17;100.00;98393.31;15286455;19;20034;-82
2022/09/11 05:48:56;;;;;;;3.65;3.03;;;;;;;13.24;100.00;98390.72;15292937;19;20482;-81
2022/09/11 05:54:07;;;;;;;3.78;2.97;;;;;;;13.23;100.00;98398.00;15300409;19;20014;-82
2022/09/11 05:59:16;;;;;;;3.53;3.00;;;;;;;13.29;100.00;98406.44;15298938;19;20011;-80
2022/09/11 06:04:24;;;;;;;4.22;2.88;;;;;;;13.34;100.00;98410.28;15300456;19;20018;-80
2022/09/11 06:09:31;;;;;;;3.55;3.13;;;;;;;13.38;100.00;98427.00;15329311;19;20028;-80
2022/09/11 06:14:36;;;;;;;4.55;3.38;;;;;;;13.45;100.00;98429.84;15219113;19;20014;-80
2022/09/11 06:19:42;;;;;;;4.93;3.60;;;;;;;13.49;100.00;98439.31;15312274;19;20662;-80
2022/09/11 06:24:49;;;;;;;5.03;3.28;;;;;;;13.55;100.00;98439.44;15311136;19;20037;-80
2022/09/11 06:29:54;;;;;;;6.45;3.22;;;;;;;13.63;100.00;98456.63;15302802;19;20011;-78
2022/09/11 06:34:59;;;;;;;4.90;3.60;;;;;;;13.72;100.00;98455.53;15306034;19;20114;-78
2022/09/11 06:40:07;;;;;;;6.50;3.35;;;;;;;13.80;100.00;98452.78;15302008;19;20035;-79
2022/09/11 06:45:12;;;;;;;5.15;3.70;;;;;;;13.88;100.00;98462.69;15301423;19;20528;-79
2022/09/11 06:50:17;;;;;;;5.85;4.13;;;;;;;13.84;100.00;98462.22;15293224;19;20003;-78
2022/09/11 06:55:42;;;;;;;7.72;4.65;;;;;;;13.84;100.00;98467.63;15287202;19;20011;-78
2022/09/11 07:00:53;;;;;;;6.07;4.80;;;;;;;13.83;100.00;98474.06;15289782;19;20014;-76
2022/09/11 07:06:02;;;;;;;5.85;4.85;;;;;;;13.81;100.00;98476.13;15286239;19;20045;-78
2022/09/11 07:11:11;;;;;;;7.68;5.45;;;;;;;13.81;100.00;98492.38;14775623;19;10000834;-77
2022/09/11 07:16:16;;;;;;;7.88;5.80;;;;;;;13.84;100.00;98486.59;15287871;19;20027;-77
2022/09/11 07:21:29;;;;;;;8.75;6.60;;;;;;;13.93;100.00;98483.84;15289841;19;20015;-78
2022/09/11 07:26:40;;;;;;;7.65;5.88;;;;;;;14.03;100.00;98493.38;15282042;19;20027;-78
2022/09/11 07:31:54;;;;;;;8.50;6.68;;;;;;;14.20;100.00;98478.84;15282763;19;20418;-78
2022/09/11 07:36:59;;;;;;;7.90;6.78;;;;;;;14.30;100.00;98501.09;15276578;19;20025;-77
2022/09/11 07:42:08;;;;;;;7.85;6.50;;;;;;;14.43;100.00;98498.63;15292202;19;20021;-79
2022/09/11 07:47:14;;;;;;;7.57;5.97;;;;;;;14.54;100.00;98499.19;15294028;19;20006;-79
2022/09/11 07:52:23;;;;;;;6.60;5.30;;;;;;;14.54;100.00;98496.47;15291479;19;20121;-79
2022/09/11 07:57:34;;;;;;;5.18;4.63;;;;;;;14.70;100.00;98496.34;15290710;19;20010;-79
2022/09/11 08:02:44;;;;;;;8.25;4.97;;;;;;;14.69;100.00;98491.13;15288228;19;20426;-78
2022/09/11 08:07:48;;;;;;;7.43;5.60;;;;;;;14.67;100.00;98507.56;15277457;19;20378;-76
2022/09/11 08:12:56;;;;;;;7.40;4.80;;;;;;;14.71;100.00;98508.03;15288908;19;20011;-77
2022/09/11 08:18:07;;;;;;;4.95;4.20;;;;;;;14.75;100.00;98507.50;15288235;19;20014;-78
2022/09/11 08:23:14;;;;;;;7.03;4.60;;;;;;;14.88;100.00;98508.69;15284063;19;20011;-78
2022/09/11 08:28:21;;;;;;;5.43;4.72;;;;;;;14.90;100.00;98507.50;15282491;19;20139;-77
2022/09/11 08:33:26;;;;;;;4.88;4.22;;;;;;;14.97;100.00;98512.16;15277275;19;20010;-77
2022/09/11 08:38:32;;;;;;;4.97;4.20;;;;;;;14.99;100.00;98518.25;15281739;19;20028;-77
2022/09/11 08:43:49;;;;;;;5.88;4.43;;;;;;;14.98;100.00;98517.41;15277722;19;20732;-77
2022/09/11 08:49:02;;;;;;;5.47;3.88;;;;;;;15.05;100.00;98531.91;15283398;19;20073;-78
2022/09/11 08:54:08;;;;;;;4.63;3.80;;;;;;;15.18;100.00;98524.97;15284388;19;20010;-78
2022/09/11 08:59:29;;;;;;;4.25;3.78;;;;;;;15.28;100.00;98530.13;15281615;19;20023;-77
2022/09/11 09:05:03;;;;;;;4.30;3.42;;;;;;;15.30;100.00;98530.75;15308947;19;20065;-76
2022/09/11 09:10:20;;;;;;;4.07;3.55;;;;;;;15.37;100.00;98540.66;15320269;19;20015;-78
2022/09/11 09:15:39;;;;;;;4.47;3.30;;;;;;;15.36;100.00;98535.44;15270994;19;20685;-77
2022/09/11 09:20:48;;;;;;;4.30;3.40;;;;;;;15.49;100.00;98534.75;15274409;19;20027;-77
2022/09/11 09:25:56;;;;;;;5.50;3.50;;;;;;;15.52;100.00;98540.63;15277968;19;20027;-76
2022/09/11 09:31:07;;;;;;;5.30;3.30;;;;;;;15.51;100.00;98552.56;15269820;19;20010;-75
2022/09/11 09:36:16;;;;;;;4.53;3.92;;;;;;;15.59;100.00;98554.28;15265446;19;20020;-76
2022/09/11 09:41:51;;;;;;;3.80;3.20;;;;;;;15.83;100.00;98554.97;15260457;19;20037;-76
2022/09/11 09:46:58;;;;;;;4.60;3.08;;;;;;;16.05;100.00;98550.44;15259356;19;20021;-75
2022/09/11 09:52:16;;;;;;;4.82;3.15;;;;;;;16.19;100.00;98545.97;15265825;19;20033;-75
2022/09/11 09:57:22;;;;;;;3.17;2.58;;;;;;;16.32;100.00;98548.00;15267964;19;20532;-75
2022/09/11 10:02:44;;;;;;;3.58;2.75;;;;;;;16.35;100.00;98544.84;15265358;19;20019;-74
2022/09/11 10:07:52;;;;;;;3.58;2.30;;;;;;;16.53;100.00;98538.94;15262792;19;20039;-74
2022/09/11 10:12:59;;;;;;;4.07;2.70;;;;;;;16.56;100.00;98538.56;15270004;19;20550;-73
2022/09/11 10:18:36;;;;;;;3.33;2.55;;;;;;;16.54;100.00;98535.19;15264873;19;20045;-73
2022/09/11 10:23:47;;;;;;;4.15;3.00;;;;;;;16.64;100.00;98522.09;15267176;19;20025;-73
2022/09/11 10:28:53;;;;;;;4.53;2.45;;;;;;;16.78;100.00;98522.19;15266566;19;20010;-74
2022/09/11 10:34:02;;;;;;;3.70;2.55;;;;;;;17.10;100.00;98525.34;15263336;19;20017;-74
2022/09/11 10:39:06;;;;;;;3.65;1.98;;;;;;;17.14;100.00;98515.72;15267507;19;20487;-75
2022/09/11 10:44:15;;;;;;;2.42;1.95;;;;;;;17.27;100.00;98516.84;15262574;19;20347;-74
2022/09/11 10:49:24;;;;;;;5.70;2.47;;;;;;;17.41;100.00;98513.13;15262209;19;20378;-75
2022/09/11 10:54:52;;;;;;;5.03;3.15;;;;;;;17.67;100.00;98517.81;15257136;19;20034;-75
2022/09/11 11:00:04;;;;;;;3.42;3.00;;;;;;;17.61;100.00;98520.53;15282942;19;20078;-74
2022/09/11 11:05:23;;;;;;;3.47;3.17;;;;;;;17.51;100.00;98535.38;15281473;19;20018;-74
2022/09/11 11:10:39;;;;;;;5.07;3.55;;;;;;;17.43;100.00;98537.44;15280663;19;20025;-75
2022/09/11 11:15:58;;;;;;;5.18;3.90;;;;;;;17.24;100.00;98529.81;15279937;19;20461;-75
2022/09/11 11:21:15;;;;;;;5.05;3.80;;;;;;;17.23;100.00;98538.19;15307601;19;20035;-75
2022/09/11 11:26:37;;;;;;;4.18;3.42;;;;;;;17.52;100.00;98531.63;15286252;19;20014;-75
2022/09/11 11:32:00;;;;;;;4.75;3.58;;;;;;;17.44;100.00;98539.97;15284977;19;20490;-75
2022/09/11 11:37:14;;;;;;;4.10;2.90;;;;;;;17.75;100.00;98544.06;15285588;19;20022;-75
2022/09/11 11:42:24;;;;;;;5.93;3.95;;;;;;;17.70;100.00;98535.63;15280377;19;20077;-76
2022/09/11 11:47:33;;;;;;;4.47;3.17;;;;;;;17.78;100.00;98551.81;15279538;19;20018;-75
2022/09/11 11:52:50;;;;;;;4.13;3.13;;;;;;;17.94;100.00;98555.19;15280318;19;20025;-74
2022/09/11 11:58:04;;;;;;;4.53;3.53;;;;;;;17.84;100.00;98556.44;15276166;19;20078;-74
2022/09/11 12:03:14;;;;;;;4.57;3.50;;;;;;;17.90;100.00;98559.41;15277257;19;20090;-74
2022/09/11 12:08:22;;;;;;;5.97;3.83;;;;;;;17.93;100.00;98559.81;15277887;19;20011;-75
2022/09/11 12:13:37;;;;;;;4.88;3.30;;;;;;;18.04;100.00;98563.03;15274368;19;20050;-74
2022/09/11 12:18:43;;;;;;;4.82;3.38;;;;;;;18.10;100.00;98567.66;15268958;19;20093;-74
2022/09/11 12:24:19;;;;;;;3.50;2.92;;;;;;;18.10;100.00;98565.75;15274180;19;20015;-76
2022/09/11 12:29:57;;;;;;;6.85;3.33;;;;;;;17.99;100.00;98574.53;15269505;19;20010;-73
2022/09/11 12:35:18;;;;;;;5.20;3.30;;;;;;;17.70;100.00;98579.22;15280758;19;20010;-74
2022/09/11 12:40:36;;;;;;;3.67;3.17;;;;;;;17.54;100.00;98572.25;15276361;19;20007;-76
2022/09/11 12:45:42;;;;;;;3.92;2.65;;;;;;;17.39;100.00;98588.75;15283315;19;20018;-73
2022/09/11 12:50:54;;;;;;;2.83;2.22;;;;;;;17.18;100.00;98582.34;15286266;19;20027;-74
2022/09/11 12:56:04;;;;;;;2.92;2.20;;;;;;;17.04;100.00;98578.72;15302335;19;20006;-74
2022/09/11 13:01:18;;;;;;;2.83;2.38;;;;;;;17.12;100.00;98580.41;15268178;19;20463;-73
2022/09/11 13:06:24;;;;;;;3.05;2.00;;;;;;;17.44;100.00;98571.78;15272797;19;20014;-74
2022/09/11 13:11:43;;;;;;;3.53;1.80;;;;;;;17.65;100.00;98558.06;15272745;19;20068;-76
2022/09/11 13:16:51;;;;;;;2.55;1.70;;;;;;;18.02;100.00;98564.06;15270984;19;20023;-76
2022/09/11 13:21:56;;;;;;;2.08;1.25;;;;;;;18.07;100.00;98566.16;15266048;19;20013;-76
2022/09/11 13:27:05;;;;;;;3.17;1.30;;;;;;;17.97;100.00;98571.19;15277494;19;20010;-76
2022/09/11 13:32:12;;;;;;;2.13;1.88;;;;;;;17.94;100.00;98560.66;15267140;19;20018;-76
2022/09/11 13:37:31;;;;;;;2.40;2.15;;;;;;;17.79;100.00;98569.84;15272128;19;20022;-76
2022/09/11 13:42:41;;;;;;;3.55;2.10;;;;;;;17.55;100.00;98568.50;15271558;19;20014;-76
2022/09/11 13:47:46;;;;;;;2.47;1.88;;;;;;;17.50;100.00;98568.28;15272246;19;20355;-77
2022/09/11 13:52:52;;;;;;;2.15;1.92;;;;;;;17.34;100.00;98572.19;15265658;19;20006;-74
2022/09/11 13:58:01;;;;;;;2.10;1.73;;;;;;;17.22;100.00;98574.63;15274930;19;20011;-74
2022/09/11 14:03:08;;;;;;;3.90;1.73;;;;;;;17.16;100.00;98576.25;15269178;19;20003;-75
2022/09/11 14:08:22;;;;;;;1.90;1.60;;;;;;;17.09;100.00;98578.94;15270350;19;20015;-75
2022/09/11 14:13:36;;;;;;;2.55;2.10;;;;;;;17.16;100.00;98570.00;15266246;19;20003;-75
2022/09/11 14:18:47;;;;;;;2.40;2.20;;;;;;;17.27;100.00;98574.88;15265965;19;20061;-74
2022/09/11 14:23:54;;;;;;;2.92;2.40;;;;;;;17.41;100.00;98575.78;15272840;19;20031;-75
2022/09/11 14:29:22;;;;;;;2.50;2.10;;;;;;;17.46;100.00;98575.16;15274926;19;20006;-75
2022/09/11 14:34:28;;;;;;;2.88;2.35;;;;;;;17.58;100.00;98564.53;15286224;19;20106;-74
2022/09/11 14:39:38;;;;;;;2.60;2.10;;;;;;;17.69;100.00;98569.41;15280592;19;20806;-74
2022/09/11 14:44:45;;;;;;;2.20;2.00;;;;;;;17.80;100.00;98566.09;15285254;19;20031;-75
2022/09/11 14:49:52;;;;;;;2.00;1.85;;;;;;;17.90;100.00;98564.84;15286001;19;20013;-73
2022/09/11 14:54:58;;;;;;;2.88;1.95;;;;;;;17.76;100.00;98561.25;15279504;19;20451;-75
2022/09/11 15:00:06;;;;;;;3.85;1.83;;;;;;;17.85;100.00;98563.56;15277012;19;20007;-73
2022/09/11 15:05:15;;;;;;;4.85;2.03;;;;;;;17.85;100.00;98563.56;15282225;19;20384;-74
2022/09/11 15:10:20;;;;;;;2.40;1.70;;;;;;;17.82;100.00;98563.16;15273489;19;20476;-73
2022/09/11 15:15:28;;;;;;;1.92;1.70;;;;;;;17.70;100.00;98568.34;15280849;19;20804;-73
2022/09/11 15:20:33;;;;;;;2.20;2.00;;;;;;;17.60;100.00;98570.59;15285272;19;20029;-74
2022/09/11 15:25:37;;;;;;;2.67;2.10;;;;;;;17.38;100.00;98570.72;15279371;19;20011;-74
2022/09/11 15:30:44;;;;;;;2.75;2.50;;;;;;;17.33;100.00;98565.06;15275122;19;20006;-73
2022/09/11 15:35:49;;;;;;;3.53;2.40;;;;;;;17.25;100.00;98569.59;15280596;19;20026;-72
2022/09/11 15:40:55;;;;;;;2.58;2.30;;;;;;;17.07;100.00;98572.03;15276981;19;20365;-72
2022/09/11 15:46:06;;;;;;;3.17;2.50;;;;;;;16.99;100.00;98564.84;15279704;19;20082;-72
2022/09/11 15:51:14;;;;;;;;;;;;;;;16.91;100.00;98563.09;15282669;19;20013;-73
2022/09/11 15:56:23;;;;;;;3.22;2.70;;;;;;;16.94;100.00;98567.31;15281586;19;19922;-73
2022/09/11 16:01:33;;;;;;;3.40;2.57;;;;;;;16.92;100.00;98556.59;15296628;19;20117;-75
2022/09/11 16:06:39;;;;;;;3.25;2.47;;;;;;;16.85;100.00;98555.72;15299465;19;20434;-73
2022/09/11 16:11:46;;;;;;;3.20;2.90;;;;;;;16.86;100.00;98543.81;15276974;19;20006;-74
2022/09/11 16:16:55;;;;;;;4.38;2.92;;;;;;;16.90;100.00;98553.25;15284723;19;20015;-74
2022/09/11 16:22:02;;;;;;;3.00;2.70;;;;;;;16.83;100.00;98549.66;15291204;19;20027;-75
2022/09/11 16:27:08;;;;;;;3.95;2.90;;;;;;;16.91;100.00;98556.81;15325755;19;20798;-74
2022/09/11 16:32:26;;;;;;;3.10;2.55;;;;;;;16.89;100.00;98556.16;15275756;19;20014;-74
2022/09/11 16:37:32;;;;;;;2.58;2.38;;;;;;;16.82;100.00;98552.56;15273217;19;20030;-75
2022/09/11 16:42:37;;;;;;;3.53;2.65;;;;;;;16.76;100.00;98559.63;15273409;19;20023;-74
2022/09/11 16:47:44;;;;;;;5.22;3.08;;;;;;;16.62;100.00;98564.13;15268769;19;20050;-74
2022/09/11 16:52:49;;;;;;;3.72;3.13;;;;;;;16.60;100.00;98577.94;15272826;19;20010;-74
2022/09/11 16:57:54;;;;;;;4.03;3.35;;;;;;;16.81;100.00;98572.66;15278957;19;20016;-73
2022/09/11 17:03:01;;;;;;;3.25;2.92;;;;;;;16.97;100.00;98571.53;15272768;19;20018;-74
2022/09/11 17:08:06;;;;;;;3.45;2.75;;;;;;;17.08;100.00;98563.63;15268573;19;20363;-74
2022/09/11 17:13:11;;;;;;;3.40;2.40;;;;;;;17.22;100.00;98564.59;15274055;19;20046;-74
2022/09/11 17:18:19;;;;;;;2.85;2.40;;;;;;;17.27;100.00;98553.09;15268061;19;20017;-74
2022/09/11 17:23:24;;;;;;;2.55;2.35;;;;;;;17.25;100.00;98549.72;15272331;19;20014;-74
2022/09/11 17:28:28;;;;;;;2.53;2.33;;;;;;;17.12;100.00;98555.91;15273779;19;20025;-77
2022/09/11 17:33:36;;;;;;;2.50;2.30;;;;;;;17.00;100.00;98549.34;15269431;19;20014;-72
2022/09/11 17:38:42;;;;;;;3.55;3.05;;;;;;;16.87;100.00;98550.94;15263019;19;20019;-74
2022/09/11 17:43:47;;;;;;;3.40;3.10;;;;;;;16.67;100.00;98555.38;15269899;19;20015;-77
2022/09/11 17:48:54;;;;;;;4.65;3.63;;;;;;;16.48;100.00;98564.00;15270664;19;20432;-74
2022/09/11 17:54:00;;;;;;;4.93;3.78;;;;;;;16.31;100.00;98568.88;15268198;19;20015;-73
2022/09/11 17:59:05;;;;;;;5.35;3.88;;;;;;;16.16;100.00;98581.72;15272992;19;20017;-75
2022/09/11 18:04:13;;;;;;;4.55;4.10;;;;;;;16.01;100.00;98582.59;15277070;19;20006;-76
2022/09/11 18:09:18;;;;;;;5.05;4.40;;;;;;;15.87;100.00;98588.91;15284564;19;20020;-75
2022/09/11 18:14:23;;;;;;;5.25;4.55;;;;;;;15.73;100.00;98593.34;15280516;19;20034;-74
2022/09/11 18:19:30;;;;;;;5.97;4.43;;;;;;;15.60;100.00;98594.00;15286162;19;20029;-74
2022/09/11 18:24:34;;;;;;;5.28;4.43;;;;;;;15.45;100.00;98606.75;15284874;19;20008;-73
2022/09/11 18:29:39;;;;;;;6.28;5.10;;;;;;;15.34;100.00;98617.06;15288991;19;20014;-74
2022/09/11 18:34:47;;;;;;;5.70;4.75;;;;;;;15.29;100.00;98619.50;15289724;19;20425;-75
2022/09/11 18:39:52;;;;;;;7.53;5.72;;;;;;;15.17;100.00;98620.97;15287028;19;20476;-74
2022/09/11 18:44:56;;;;;;;6.78;5.65;;;;;;;15.04;100.00;98627.88;15278999;19;20019;-75
2022/09/11 18:50:03;;;;;;;7.00;5.80;;;;;;;14.89;100.00;98630.59;15287160;19;20471;-75
2022/09/11 18:55:08;;;;;;;5.40;4.78;;;;;;;14.81;100.00;98629.81;15287424;19;20475;-74
2022/09/11 19:00:16;;;;;;;6.82;5.72;;;;;;;14.73;100.00;98631.59;15285143;19;20089;-75
2022/09/11 19:05:23;;;;;;;7.75;5.95;;;;;;;14.68;100.00;98623.13;15288177;19;20022;-76
2022/09/11 19:10:28;;;;;;;7.10;5.03;;;;;;;14.64;100.00;98627.22;15285045;19;20333;-76
2022/09/11 19:15:33;;;;;;;6.72;6.00;;;;;;;14.59;100.00;98635.06;15281734;19;20531;-74
2022/09/11 19:20:40;;;;;;;6.40;4.80;;;;;;;14.53;100.00;98630.34;15286809;19;20347;-74
2022/09/11 19:25:45;;;;;;;6.63;5.88;;;;;;;14.46;100.00;98635.69;15285498;19;20090;-74
2022/09/11 19:30:57;;;;;;;9.45;6.97;;;;;;;14.42;100.00;98635.16;15286995;19;20077;-74
2022/09/11 19:36:08;;;;;;;104.80;8.90;;;;;;;14.37;100.00;98648.44;15282666;19;20035;-75
2022/09/11 19:41:15;;;;;;;199.57;13.32;;;;;;;14.30;100.00;98647.44;15283352;19;20007;-75
2022/09/11 19:46:22;;;;;;;153.90;11.95;;;;;;;14.22;100.00;98656.50;15277278;19;20010;-75
2022/09/11 19:51:32;;;;;;;65.88;9.75;;;;;;;14.12;100.00;98658.56;15282699;19;20439;-75
2022/09/11 19:56:39;;;;;;;98.50;11.15;;;;;;;14.06;100.00;98656.59;15284522;19;20365;-73
2022/09/11 20:01:43;;;;;;;1153.75;27.77;;;;;;;13.96;100.00;98654.09;15282958;19;20029;-75
2022/09/11 20:06:52;;;;;;;60.85;8.13;;;;;;;13.84;100.00;98649.06;15289143;19;20010;-75
2022/09/11 20:11:55;;;;;;;6.00;5.50;;;;;;;13.78;100.00;98654.34;15314576;19;20033;-73
2022/09/11 20:16:59;;;;;;;24.40;5.88;;;;;;;13.75;100.00;98660.97;15303971;19;20022;-73
2022/09/11 20:22:07;;;;;;;7.13;6.43;;;;;;;13.71;100.00;98663.19;15271579;19;20560;-73
2022/09/11 20:27:12;;;;;;;6.35;5.75;;;;;;;13.69;100.00;98662.53;15273935;19;20015;-74
2022/09/11 20:32:18;;;;;;;6.28;5.57;;;;;;;13.68;100.00;98660.81;15273204;19;20017;-74
2022/09/11 20:37:25;;;;;;;5.97;5.38;;;;;;;13.69;100.00;98664.41;15277939;19;20085;-75
2022/09/11 20:42:29;;;;;;;26.20;7.40;;;;;;;13.70;100.00;98666.09;15276130;19;20622;-74
2022/09/11 20:47:34;;;;;;;122.28;8.20;;;;;;;13.67;100.00;98669.13;15255901;19;20491;-74
2022/09/11 20:52:45;;;;;;;65.75;8.15;;;;;;;13.66;100.00;98668.28;15270497;19;20023;-74
2022/09/11 20:57:49;;;;;;;72.95;8.25;;;;;;;13.64;100.00;98666.78;15274293;19;20466;-74
2022/09/11 21:02:54;;;;;;;16.17;7.80;;;;;;;13.63;100.00;98667.78;15270494;19;20027;-73
2022/09/11 21:08:01;;;;;;;9.23;7.07;;;;;;;13.63;100.00;98667.78;15280016;19;20010;-73
2022/09/11 21:13:06;;;;;;;18.50;7.68;;;;;;;13.62;100.00;98666.97;15321410;19;20509;-73
2022/09/11 21:18:10;;;;;;;87.57;8.60;;;;;;;13.62;100.00;98671.50;15285891;19;20406;-74
2022/09/11 21:23:17;;;;;;;44.03;8.38;;;;;;;13.62;100.00;98671.50;15268144;19;20066;-73
2022/09/11 21:28:22;;;;;;;14.60;8.05;;;;;;;13.62;100.00;98668.81;15272926;19;20018;-73
2022/09/11 21:33:27;;;;;;;104.43;9.10;;;;;;;13.60;100.00;98676.25;15272638;19;20761;-73
2022/09/11 21:38:34;;;;;;;85.22;9.00;;;;;;;13.61;100.00;98681.50;15267029;19;20018;-73
2022/09/11 21:43:39;;;;;;;29.65;8.63;;;;;;;13.61;100.00;98680.66;15272190;19;20110;-74
2022/09/11 21:48:44;;;;;;;621.83;22.70;;;;;;;13.60;100.00;98685.22;15272085;19;20015;-74
2022/09/11 21:53:57;;;;;;;111.15;9.43;;;;;;;13.58;100.00;98678.31;15269544;19;20014;-74
2022/09/11 21:59:02;;;;;;;123.53;9.43;;;;;;;13.54;100.00;98675.94;15267058;19;20025;-74
2022/09/11 22:04:06;;;;;;;38.75;7.72;;;;;;;13.56;100.00;98682.03;15270184;19;20466;-74
2022/09/11 22:09:19;;;;;;;143.95;9.20;;;;;;;13.55;100.00;98677.63;15269061;19;20011;-73
2022/09/11 22:14:23;;;;;;;215.95;10.10;;;;;;;13.54;100.00;98686.78;15269294;19;20370;-73
2022/09/11 22:19:28;;;;;;;66.68;7.35;;;;;;;13.53;100.00;98682.38;15271176;19;20748;-74
2022/09/11 22:24:37;;;;;;;101.85;7.25;;;;;;;13.47;100.00;98688.47;15273865;19;20016;-73
2022/09/11 22:29:42;;;;;;;285.73;10.02;;;;;;;13.46;100.00;98681.41;15266325;19;20609;-74
2022/09/11 22:34:50;;;;;;;292.00;9.55;;;;;;;13.42;100.00;98671.94;15268712;19;20018;-74
2022/09/11 22:39:57;;;;;;;16.85;5.50;;;;;;;13.42;100.00;98677.34;15267229;19;20429;-74
2022/09/11 22:45:02;;;;;;;89.35;6.68;;;;;;;13.38;100.00;98675.94;15268859;19;20762;-76
2022/09/11 22:50:08;;;;;;;32.33;5.60;;;;;;;13.37;100.00;98669.72;15278387;19;20018;-74
2022/09/11 22:55:15;;;;;;;114.38;5.65;;;;;;;13.37;100.00;98668.84;15281892;19;20017;-74
2022/09/11 23:00:19;;;;;;;90.15;5.32;;;;;;;13.34;100.00;98669.22;15279626;19;20027;-74
2022/09/11 23:10:45;;;;;;;91.88;5.03;;;;;;;13.29;100.00;98669.72;15284026;19;20871;-73
2022/09/11 23:15:50;;;;;;;40.03;4.13;;;;;;;13.26;100.00;98667.38;15279423;19;20019;-74
2022/09/11 23:20:55;;;;;;;52.58;4.65;;;;;;;13.25;100.00;98666.50;15275216;19;20086;-75
2022/09/11 23:26:04;;;;;;;126.90;5.82;;;;;;;13.26;100.00;98670.06;15285478;19;20013;-74
2022/09/11 23:31:12;;;;;;;122.18;5.65;;;;;;;13.25;100.00;98671.91;15284602;19;20010;-76
2022/09/11 23:36:17;;;;;;;83.53;5.40;;;;;;;13.25;100.00;98671.09;15280292;19;20015;-74
2022/09/11 23:41:25;;;;;;;87.43;5.32;;;;;;;13.24;100.00;98662.13;15287493;19;20085;-74